Share

Alvin, SC

1:54 AM EDT on April 24, 2014 (GMT -0400)
RAWS WITHERBEE SC US (MWTHS1) Elev 50 ft | 33.16 °N, 79.83 °W | Change Station
Active Advisory: Flood Warning

Current weather conditions updated 51 minutes ago

Clear
Clear
53 °F
Feels Like 53 °F
N
0
Wind Variable Wind from North
Gusts 2.0 mph
Sunrise 6:38 AM
Sunset 7:56 PM
Moon Waning Crescent

Today is forecast to be Cooler than yesterday.

Pressure 29.95 in
Visibility 10.0 miles
Clouds Clear
Dew Point 50 °F
Humidity 90%
Rainfall 0.00 in
Snow Depth Not available.
UV 0 out of 16
Pollen 9.10 out of 12
Air Quality Not available.
Flu Activity Local Activity
METAR KMKS 240635Z AUTO 00000KT 10SM CLR 13/11 A2995 RMK AO2

More Conditions Fewer Conditions

Pressure 29.95 in
Visibility 10.0 miles
Clouds Clear
Dew Point 50 °F
Humidity 90%
Rainfall 0.00 in
Snow Depth Not available.
UV 0 out of 16
Pollen 9.10 out of 12
Air Quality Not available.
Flu Activity Local Activity
METAR KMKS 240635Z AUTO 00000KT 10SM CLR 13/11 A2995 RMK AO2

More Conditions Fewer Conditions

10-Day Weather Forecast

Almanac

Astronomy

Apr. 24, 2014 Rise Set
Actual Time 6:38 AM EDT 7:56 PM EDT
Civil Twilight 6:12 AM EDT 8:22 PM EDT
Nautical Twilight 5:41 AM EDT 8:53 PM EDT
Astronomical Twilight 5:09 AM EDT 9:26 PM EDT
Moon 3:33 AM EDT 3:24 PM EDT
Length of Visible Light 14h 10m
Length of Day
13h 18m
Tomorrow will be 1m 51s longer.
Waning Crescent, 29% of the Moon is Illuminated
Today
Waning Crescent
Apr 29
New
May 6
First Quarter
May 14
Full
May 21
Last Quarter

Today's Extremes

State Highs State Lows

Community

  • Stacked
    Stacked
  • clouds approaching Red Sox Nation
    clouds approaching Red Sox Nation
  • Balance
    Balance
  • Nestled In
    Nestled In
  • Stunning Sunrise
    Stunning Sunrise

WunderPhotos

Upload Photos

1,704,572 photos uploaded!

WunderBlogs® & News

Nearby

Air Quality

  Air Quality AQ Index Pollutant
Yesterday Good
OZONE
Yesterday Good
PM2.5
Wednesday Good
OZONE
Thursday Good
OZONE

Snow Depth

Station Depth Elevation
No new snow has been reported.

Coastal Water Temperatures

Place Temperature
No Stations Reporting

Earthquake Activity

City Distance Mag. Time & Date
No recent earthquake activity has been reported nearby.
Minimum magnitude displayed is 2.5.

Nearby Weather Stations

Station Location Temp. Dew Point Humidity Wind Precip. Elev Updated Type
RAWS WITHERBEE SC, Moncks Corner, SC 53 °F 50 °F 90% North  at  0 mph 0.00 in / hr 50 ft 1:03 AM EDT MADIS
Moncks Corner, SC 50.2 °F 34 °F 54% SSW  at  0.0 mph 0.00 in / hr 0 ft 1:53 AM EDT Rapid Fire
Windwood, Moncks Corner, SC 55.0 °F 54 °F 98% NE  at  0.0 mph - / hr 66 ft 1:50 AM EDT Normal
Spring Gully, Georgetown, SC 52.6 °F 51 °F 94% North  at  0.0 mph 0.00 in / hr 20 ft 1:43 AM EDT Normal

Show More Stations Show Fewer Stations

What do you think?

We're not finished. Please let us know what you like, what you don't like, and what you are still missing.